Arlington, Washington
Current Conditions -  °F | °C
As of 3:55 AM on Sunday 23 Nov 2014 (Local Time) from KAWO Reporting Station
Overcast Overcast  
Wind Chill: 44°   Ceiling: 1400
Heat Index: 46°   Visibility: 9mi
Dew Point: 41°   Wind: 5mph
Humidity: 81%   Direction: 170°S
Pressure: 30.11"   Gusts: NA
Location:  48.2°N, 122.13°W
Report Text: KAWO 231155Z AUTO 17004KT 9SM BKN014 OVC019 08/05 A3011 RMK AO1 P0002 60002 70006 10080 20060 57010
Loading
Personal Weather Stations






























Interactive Weather Map New forecast layout! Learn more

10-Day Weather Forecast

Advertisements
Track Severe Weather on mobile